sensor_id;sensor_type;location;lat;lon;timestamp;temperature;humidity
41904;DHT22;27586;51.124;4.182;2023-05-14T00:00:20;12.80;99.90
41904;DHT22;27586;51.124;4.182;2023-05-14T00:02:45;12.70;99.90
41904;DHT22;27586;51.124;4.182;2023-05-14T00:05:11;12.80;99.90
41904;DHT22;27586;51.124;4.182;2023-05-14T00:07:37;12.80;99.90
41904;DHT22;27586;51.124;4.182;2023-05-14T00:10:03;12.80;99.90
41904;DHT22;27586;51.124;4.182;2023-05-14T00:12:28;12.80;99.90
41904;DHT22;27586;51.124;4.182;2023-05-14T00:14:54;12.70;99.90
41904;DHT22;27586;51.124;4.182;2023-05-14T00:17:20;12.80;99.90
41904;DHT22;27586;51.124;4.182;2023-05-14T00:19:46;12.80;99.90
41904;DHT22;27586;51.124;4.182;2023-05-14T00:22:12;12.80;99.90
41904;DHT22;27586;51.124;4.182;2023-05-14T00:24:37;12.70;99.90
41904;DHT22;27586;51.124;4.182;2023-05-14T00:27:03;12.70;99.90
41904;DHT22;27586;51.124;4.182;2023-05-14T00:29:29;12.70;99.90
41904;DHT22;27586;51.124;4.182;2023-05-14T00:31:54;12.70;99.90
41904;DHT22;27586;51.124;4.182;2023-05-14T00:34:20;12.70;99.90
41904;DHT22;27586;51.124;4.182;2023-05-14T00:36:46;12.70;99.90
41904;DHT22;27586;51.124;4.182;2023-05-14T00:39:12;12.80;99.90
41904;DHT22;27586;51.124;4.182;2023-05-14T00:41:38;12.80;99.90
41904;DHT22;27586;51.124;4.182;2023-05-14T00:44:04;12.80;99.90
41904;DHT22;27586;51.124;4.182;2023-05-14T00:46:29;12.80;99.90
41904;DHT22;27586;51.124;4.182;2023-05-14T00:48:56;12.70;99.90
41904;DHT22;27586;51.124;4.182;2023-05-14T00:51:22;12.70;99.90
41904;DHT22;27586;51.124;4.182;2023-05-14T00:53:49;12.60;99.90
41904;DHT22;27586;51.124;4.182;2023-05-14T00:56:15;12.60;99.90
41904;DHT22;27586;51.124;4.182;2023-05-14T00:58:41;12.60;99.90
41904;DHT22;27586;51.124;4.182;2023-05-14T01:01:07;12.60;99.90
41904;DHT22;27586;51.124;4.182;2023-05-14T01:03:33;12.60;99.90
41904;DHT22;27586;51.124;4.182;2023-05-14T01:06:16;12.60;99.90
41904;DHT22;27586;51.124;4.182;2023-05-14T01:16:38;12.50;99.90
41904;DHT22;27586;51.124;4.182;2023-05-14T01:19:09;12.50;99.90
41904;DHT22;27586;51.124;4.182;2023-05-14T01:21:35;12.40;99.90
41904;DHT22;27586;51.124;4.182;2023-05-14T01:24:02;12.40;99.90
41904;DHT22;27586;51.124;4.182;2023-05-14T01:26:28;12.40;99.90
41904;DHT22;27586;51.124;4.182;2023-05-14T01:29:03;12.40;99.90
41904;DHT22;27586;51.124;4.182;2023-05-14T01:31:31;12.40;99.90
41904;DHT22;27586;51.124;4.182;2023-05-14T01:33:59;12.50;99.90
41904;DHT22;27586;51.124;4.182;2023-05-14T01:36:27;12.40;99.90
41904;DHT22;27586;51.124;4.182;2023-05-14T01:38:54;12.40;99.90
41904;DHT22;27586;51.124;4.182;2023-05-14T01:41:21;12.40;99.90
41904;DHT22;27586;51.124;4.182;2023-05-14T01:43:47;12.40;99.90
41904;DHT22;27586;51.124;4.182;2023-05-14T01:46:17;12.40;99.90
41904;DHT22;27586;51.124;4.182;2023-05-14T01:48:43;12.40;99.90
41904;DHT22;27586;51.124;4.182;2023-05-14T01:51:08;12.50;99.90
41904;DHT22;27586;51.124;4.182;2023-05-14T01:53:34;12.50;99.90
41904;DHT22;27586;51.124;4.182;2023-05-14T01:56:00;12.50;99.90
41904;DHT22;27586;51.124;4.182;2023-05-14T01:58:25;12.50;99.90
41904;DHT22;27586;51.124;4.182;2023-05-14T02:00:51;12.50;99.90
41904;DHT22;27586;51.124;4.182;2023-05-14T02:03:17;12.50;99.90
41904;DHT22;27586;51.124;4.182;2023-05-14T02:05:42;12.50;99.90
41904;DHT22;27586;51.124;4.182;2023-05-14T02:08:08;12.40;99.90
41904;DHT22;27586;51.124;4.182;2023-05-14T02:10:33;12.50;99.90
41904;DHT22;27586;51.124;4.182;2023-05-14T02:12:59;12.50;99.90
41904;DHT22;27586;51.124;4.182;2023-05-14T02:15:25;12.50;99.90
41904;DHT22;27586;51.124;4.182;2023-05-14T02:17:51;12.50;99.90
41904;DHT22;27586;51.124;4.182;2023-05-14T02:20:16;12.50;99.90
41904;DHT22;27586;51.124;4.182;2023-05-14T02:22:42;12.50;99.90
41904;DHT22;27586;51.124;4.182;2023-05-14T02:25:10;12.50;99.90
41904;DHT22;27586;51.124;4.182;2023-05-14T02:27:35;12.40;99.90
41904;DHT22;27586;51.124;4.182;2023-05-14T02:30:02;12.40;99.90
41904;DHT22;27586;51.124;4.182;2023-05-14T02:32:27;12.40;99.90
41904;DHT22;27586;51.124;4.182;2023-05-14T02:34:53;12.40;99.90
41904;DHT22;27586;51.124;4.182;2023-05-14T02:37:19;12.40;99.90
41904;DHT22;27586;51.124;4.182;2023-05-14T02:39:44;12.40;99.90
41904;DHT22;27586;51.124;4.182;2023-05-14T02:42:10;12.40;99.90
41904;DHT22;27586;51.124;4.182;2023-05-14T02:44:36;12.50;99.90
41904;DHT22;27586;51.124;4.182;2023-05-14T02:47:01;12.40;99.90
41904;DHT22;27586;51.124;4.182;2023-05-14T02:49:27;12.40;99.90
41904;DHT22;27586;51.124;4.182;2023-05-14T02:51:56;12.40;99.90
41904;DHT22;27586;51.124;4.182;2023-05-14T02:54:22;12.50;99.90
41904;DHT22;27586;51.124;4.182;2023-05-14T02:56:47;12.40;99.90
41904;DHT22;27586;51.124;4.182;2023-05-14T02:59:13;12.40;99.90
41904;DHT22;27586;51.124;4.182;2023-05-14T03:01:42;12.40;99.90
41904;DHT22;27586;51.124;4.182;2023-05-14T03:04:08;12.40;99.90
41904;DHT22;27586;51.124;4.182;2023-05-14T03:06:33;12.40;99.90
41904;DHT22;27586;51.124;4.182;2023-05-14T03:08:59;12.40;99.90
41904;DHT22;27586;51.124;4.182;2023-05-14T03:11:26;12.50;99.90
41904;DHT22;27586;51.124;4.182;2023-05-14T03:13:52;12.50;99.90
41904;DHT22;27586;51.124;4.182;2023-05-14T03:16:17;12.50;99.90
41904;DHT22;27586;51.124;4.182;2023-05-14T03:18:43;12.40;99.90
41904;DHT22;27586;51.124;4.182;2023-05-14T03:21:09;12.40;99.90
41904;DHT22;27586;51.124;4.182;2023-05-14T03:23:34;12.40;99.90
41904;DHT22;27586;51.124;4.182;2023-05-14T03:26:00;12.50;99.90
41904;DHT22;27586;51.124;4.182;2023-05-14T03:28:26;12.50;99.90
41904;DHT22;27586;51.124;4.182;2023-05-14T03:30:52;12.50;99.90
41904;DHT22;27586;51.124;4.182;2023-05-14T03:33:18;12.50;99.90
41904;DHT22;27586;51.124;4.182;2023-05-14T03:35:43;12.50;99.90
41904;DHT22;27586;51.124;4.182;2023-05-14T03:38:09;12.50;99.90
41904;DHT22;27586;51.124;4.182;2023-05-14T03:40:35;12.50;99.90
41904;DHT22;27586;51.124;4.182;2023-05-14T03:43:00;12.50;99.90
41904;DHT22;27586;51.124;4.182;2023-05-14T03:45:26;12.50;99.90
41904;DHT22;27586;51.124;4.182;2023-05-14T03:47:53;12.50;99.90
41904;DHT22;27586;51.124;4.182;2023-05-14T03:50:18;12.50;99.90
41904;DHT22;27586;51.124;4.182;2023-05-14T03:52:44;12.50;99.90
41904;DHT22;27586;51.124;4.182;2023-05-14T03:55:10;12.60;99.90
41904;DHT22;27586;51.124;4.182;2023-05-14T03:57:36;12.60;99.90
41904;DHT22;27586;51.124;4.182;2023-05-14T04:00:03;12.60;99.90
41904;DHT22;27586;51.124;4.182;2023-05-14T04:02:29;12.60;99.90
41904;DHT22;27586;51.124;4.182;2023-05-14T04:04:54;12.70;99.90
41904;DHT22;27586;51.124;4.182;2023-05-14T04:07:20;12.70;99.90
41904;DHT22;27586;51.124;4.182;2023-05-14T04:09:46;12.70;99.90
41904;DHT22;27586;51.124;4.182;2023-05-14T04:12:11;12.60;99.90
41904;DHT22;27586;51.124;4.182;2023-05-14T04:14:40;12.60;99.90
41904;DHT22;27586;51.124;4.182;2023-05-14T04:17:06;12.60;99.90
41904;DHT22;27586;51.124;4.182;2023-05-14T04:19:31;12.60;99.90
41904;DHT22;27586;51.124;4.182;2023-05-14T04:21:57;12.60;99.90
41904;DHT22;27586;51.124;4.182;2023-05-14T04:24:23;12.60;99.90
41904;DHT22;27586;51.124;4.182;2023-05-14T04:26:48;12.60;99.90
41904;DHT22;27586;51.124;4.182;2023-05-14T04:29:14;12.70;99.90
41904;DHT22;27586;51.124;4.182;2023-05-14T04:31:39;12.70;99.90
41904;DHT22;27586;51.124;4.182;2023-05-14T04:34:06;12.80;99.90
41904;DHT22;27586;51.124;4.182;2023-05-14T04:36:31;12.70;99.90
41904;DHT22;27586;51.124;4.182;2023-05-14T04:38:57;12.70;99.90
41904;DHT22;27586;51.124;4.182;2023-05-14T04:41:23;12.70;99.90
41904;DHT22;27586;51.124;4.182;2023-05-14T04:43:49;12.70;99.90
41904;DHT22;27586;51.124;4.182;2023-05-14T04:46:15;12.60;99.90
41904;DHT22;27586;51.124;4.182;2023-05-14T04:48:40;12.70;99.90
41904;DHT22;27586;51.124;4.182;2023-05-14T04:51:06;12.70;99.90
41904;DHT22;27586;51.124;4.182;2023-05-14T04:53:32;12.70;99.90
41904;DHT22;27586;51.124;4.182;2023-05-14T04:55:57;12.70;99.90
41904;DHT22;27586;51.124;4.182;2023-05-14T04:58:23;12.80;99.90
41904;DHT22;27586;51.124;4.182;2023-05-14T05:00:49;12.70;99.90
41904;DHT22;27586;51.124;4.182;2023-05-14T05:03:14;12.70;99.90
41904;DHT22;27586;51.124;4.182;2023-05-14T05:05:44;12.70;99.90
41904;DHT22;27586;51.124;4.182;2023-05-14T05:08:09;12.80;99.90
41904;DHT22;27586;51.124;4.182;2023-05-14T05:10:35;12.90;99.90
41904;DHT22;27586;51.124;4.182;2023-05-14T05:13:01;13.00;99.90
41904;DHT22;27586;51.124;4.182;2023-05-14T05:15:27;12.90;99.90
41904;DHT22;27586;51.124;4.182;2023-05-14T05:17:52;12.90;99.90
41904;DHT22;27586;51.124;4.182;2023-05-14T05:20:18;12.90;99.90
41904;DHT22;27586;51.124;4.182;2023-05-14T05:22:43;12.80;99.90
41904;DHT22;27586;51.124;4.182;2023-05-14T05:25:09;12.80;99.90
41904;DHT22;27586;51.124;4.182;2023-05-14T05:27:37;12.90;99.90
41904;DHT22;27586;51.124;4.182;2023-05-14T05:30:03;12.90;99.90
41904;DHT22;27586;51.124;4.182;2023-05-14T05:32:29;12.80;99.90
41904;DHT22;27586;51.124;4.182;2023-05-14T05:34:55;12.80;99.90
41904;DHT22;27586;51.124;4.182;2023-05-14T05:37:21;12.80;99.90
41904;DHT22;27586;51.124;4.182;2023-05-14T05:39:47;12.70;99.90
41904;DHT22;27586;51.124;4.182;2023-05-14T05:42:13;12.70;99.90
41904;DHT22;27586;51.124;4.182;2023-05-14T05:44:38;12.80;99.90
41904;DHT22;27586;51.124;4.182;2023-05-14T05:47:04;12.90;99.90
41904;DHT22;27586;51.124;4.182;2023-05-14T05:49:30;13.00;99.90
41904;DHT22;27586;51.124;4.182;2023-05-14T05:51:56;13.00;99.90
41904;DHT22;27586;51.124;4.182;2023-05-14T05:54:22;12.90;99.90
41904;DHT22;27586;51.124;4.182;2023-05-14T05:56:49;13.00;99.90
41904;DHT22;27586;51.124;4.182;2023-05-14T05:59:15;12.90;99.90
41904;DHT22;27586;51.124;4.182;2023-05-14T06:01:40;12.90;99.90
41904;DHT22;27586;51.124;4.182;2023-05-14T06:04:08;12.80;99.90
41904;DHT22;27586;51.124;4.182;2023-05-14T06:06:34;12.90;99.90
41904;DHT22;27586;51.124;4.182;2023-05-14T06:08:59;12.80;99.90
41904;DHT22;27586;51.124;4.182;2023-05-14T06:11:26;12.90;99.90
41904;DHT22;27586;51.124;4.182;2023-05-14T06:13:52;12.80;99.90
41904;DHT22;27586;51.124;4.182;2023-05-14T06:16:18;12.80;99.90
41904;DHT22;27586;51.124;4.182;2023-05-14T06:18:44;12.80;99.90
41904;DHT22;27586;51.124;4.182;2023-05-14T06:21:09;12.80;99.90
41904;DHT22;27586;51.124;4.182;2023-05-14T06:23:35;12.70;99.90
41904;DHT22;27586;51.124;4.182;2023-05-14T06:26:01;12.80;99.90
41904;DHT22;27586;51.124;4.182;2023-05-14T06:28:27;12.70;99.90
41904;DHT22;27586;51.124;4.182;2023-05-14T06:30:52;12.80;99.90
41904;DHT22;27586;51.124;4.182;2023-05-14T06:33:19;12.90;99.90
41904;DHT22;27586;51.124;4.182;2023-05-14T06:35:47;12.90;99.90
41904;DHT22;27586;51.124;4.182;2023-05-14T06:38:13;13.00;99.90
41904;DHT22;27586;51.124;4.182;2023-05-14T06:40:38;13.00;99.90
41904;DHT22;27586;51.124;4.182;2023-05-14T06:43:04;13.10;99.90
41904;DHT22;27586;51.124;4.182;2023-05-14T06:45:31;13.10;99.90
41904;DHT22;27586;51.124;4.182;2023-05-14T06:47:56;13.10;99.90
41904;DHT22;27586;51.124;4.182;2023-05-14T06:50:22;13.20;99.90
41904;DHT22;27586;51.124;4.182;2023-05-14T06:52:48;13.20;99.90
41904;DHT22;27586;51.124;4.182;2023-05-14T06:55:13;13.30;99.90
41904;DHT22;27586;51.124;4.182;2023-05-14T06:57:39;13.30;99.90
41904;DHT22;27586;51.124;4.182;2023-05-14T07:00:05;13.30;99.90
41904;DHT22;27586;51.124;4.182;2023-05-14T07:02:31;13.30;99.90
41904;DHT22;27586;51.124;4.182;2023-05-14T07:04:56;13.40;99.90
41904;DHT22;27586;51.124;4.182;2023-05-14T07:07:22;13.40;99.90
41904;DHT22;27586;51.124;4.182;2023-05-14T07:09:48;13.40;99.90
41904;DHT22;27586;51.124;4.182;2023-05-14T07:12:13;13.40;99.90
41904;DHT22;27586;51.124;4.182;2023-05-14T07:14:39;13.30;99.90
41904;DHT22;27586;51.124;4.182;2023-05-14T07:17:08;13.40;99.90
41904;DHT22;27586;51.124;4.182;2023-05-14T07:19:34;13.50;99.90
41904;DHT22;27586;51.124;4.182;2023-05-14T07:21:59;13.60;99.90
41904;DHT22;27586;51.124;4.182;2023-05-14T07:24:25;13.60;99.90
41904;DHT22;27586;51.124;4.182;2023-05-14T07:26:51;13.60;99.90
41904;DHT22;27586;51.124;4.182;2023-05-14T07:29:16;13.60;99.90
41904;DHT22;27586;51.124;4.182;2023-05-14T07:31:42;13.60;99.90
41904;DHT22;27586;51.124;4.182;2023-05-14T07:34:08;13.70;99.90
41904;DHT22;27586;51.124;4.182;2023-05-14T07:36:35;13.70;99.90
41904;DHT22;27586;51.124;4.182;2023-05-14T07:39:01;13.70;99.90
41904;DHT22;27586;51.124;4.182;2023-05-14T07:41:26;13.70;99.90
41904;DHT22;27586;51.124;4.182;2023-05-14T07:43:52;13.60;99.90
41904;DHT22;27586;51.124;4.182;2023-05-14T07:46:18;13.60;99.90
41904;DHT22;27586;51.124;4.182;2023-05-14T07:48:43;13.70;99.90
41904;DHT22;27586;51.124;4.182;2023-05-14T07:51:09;13.80;99.90
41904;DHT22;27586;51.124;4.182;2023-05-14T07:53:34;13.80;99.90
41904;DHT22;27586;51.124;4.182;2023-05-14T07:56:00;13.90;99.90
41904;DHT22;27586;51.124;4.182;2023-05-14T07:58:26;14.00;99.90
41904;DHT22;27586;51.124;4.182;2023-05-14T08:00:53;14.00;99.90
41904;DHT22;27586;51.124;4.182;2023-05-14T08:03:19;13.90;99.90
41904;DHT22;27586;51.124;4.182;2023-05-14T08:05:45;14.00;99.90
41904;DHT22;27586;51.124;4.182;2023-05-14T08:08:10;13.80;99.90
41904;DHT22;27586;51.124;4.182;2023-05-14T08:10:37;13.70;99.90
41904;DHT22;27586;51.124;4.182;2023-05-14T08:13:02;13.60;99.90
41904;DHT22;27586;51.124;4.182;2023-05-14T08:15:28;13.70;99.90
41904;DHT22;27586;51.124;4.182;2023-05-14T08:17:53;13.70;99.90
41904;DHT22;27586;51.124;4.182;2023-05-14T08:20:20;13.70;99.90
41904;DHT22;27586;51.124;4.182;2023-05-14T08:22:46;13.70;99.90
41904;DHT22;27586;51.124;4.182;2023-05-14T08:25:12;13.70;99.90
41904;DHT22;27586;51.124;4.182;2023-05-14T08:27:37;13.70;99.90
41904;DHT22;27586;51.124;4.182;2023-05-14T08:30:03;13.70;99.90
41904;DHT22;27586;51.124;4.182;2023-05-14T08:32:30;13.80;99.90
41904;DHT22;27586;51.124;4.182;2023-05-14T08:34:56;13.80;99.90
41904;DHT22;27586;51.124;4.182;2023-05-14T08:37:21;13.80;99.90
41904;DHT22;27586;51.124;4.182;2023-05-14T08:39:48;13.90;99.90
41904;DHT22;27586;51.124;4.182;2023-05-14T08:42:14;13.90;99.90
41904;DHT22;27586;51.124;4.182;2023-05-14T08:44:48;13.90;99.90
41904;DHT22;27586;51.124;4.182;2023-05-14T08:47:19;13.90;99.90
41904;DHT22;27586;51.124;4.182;2023-05-14T08:49:48;14.00;99.90
41904;DHT22;27586;51.124;4.182;2023-05-14T08:52:17;14.00;99.90
41904;DHT22;27586;51.124;4.182;2023-05-14T08:54:45;14.10;99.90
41904;DHT22;27586;51.124;4.182;2023-05-14T08:57:13;14.30;99.90
41904;DHT22;27586;51.124;4.182;2023-05-14T08:59:39;14.60;99.90
41904;DHT22;27586;51.124;4.182;2023-05-14T09:02:05;14.90;99.90
41904;DHT22;27586;51.124;4.182;2023-05-14T09:04:35;14.90;99.90
41904;DHT22;27586;51.124;4.182;2023-05-14T09:07:01;14.90;99.90
41904;DHT22;27586;51.124;4.182;2023-05-14T09:09:28;14.90;99.90
41904;DHT22;27586;51.124;4.182;2023-05-14T09:11:55;15.00;99.90
41904;DHT22;27586;51.124;4.182;2023-05-14T09:14:21;15.20;99.90
41904;DHT22;27586;51.124;4.182;2023-05-14T09:16:49;15.30;99.90
41904;DHT22;27586;51.124;4.182;2023-05-14T09:19:16;15.30;99.90
41904;DHT22;27586;51.124;4.182;2023-05-14T09:21:44;15.50;99.90
41904;DHT22;27586;51.124;4.182;2023-05-14T09:24:22;15.60;99.90
41904;DHT22;27586;51.124;4.182;2023-05-14T09:26:56;15.60;99.90
41904;DHT22;27586;51.124;4.182;2023-05-14T09:29:27;15.60;99.90
41904;DHT22;27586;51.124;4.182;2023-05-14T09:31:54;15.80;99.90
41904;DHT22;27586;51.124;4.182;2023-05-14T09:36:57;16.10;99.90
41904;DHT22;27586;51.124;4.182;2023-05-14T09:39:24;16.20;99.90
41904;DHT22;27586;51.124;4.182;2023-05-14T09:41:50;16.30;99.90
41904;DHT22;27586;51.124;4.182;2023-05-14T09:44:17;16.40;99.90
41904;DHT22;27586;51.124;4.182;2023-05-14T09:46:43;16.50;99.90
41904;DHT22;27586;51.124;4.182;2023-05-14T09:49:09;16.40;99.90
41904;DHT22;27586;51.124;4.182;2023-05-14T09:51:36;16.60;99.90
41904;DHT22;27586;51.124;4.182;2023-05-14T09:54:03;16.70;99.90
41904;DHT22;27586;51.124;4.182;2023-05-14T09:56:29;16.80;99.90
41904;DHT22;27586;51.124;4.182;2023-05-14T09:58:55;16.80;99.90
41904;DHT22;27586;51.124;4.182;2023-05-14T10:01:21;16.80;99.90
41904;DHT22;27586;51.124;4.182;2023-05-14T10:03:48;17.20;99.90
41904;DHT22;27586;51.124;4.182;2023-05-14T10:06:15;17.50;99.90
41904;DHT22;27586;51.124;4.182;2023-05-14T10:08:44;17.50;99.90
41904;DHT22;27586;51.124;4.182;2023-05-14T10:11:18;17.80;99.90
41904;DHT22;27586;51.124;4.182;2023-05-14T10:13:54;17.80;99.90
41904;DHT22;27586;51.124;4.182;2023-05-14T10:16:33;17.80;99.90
41904;DHT22;27586;51.124;4.182;2023-05-14T10:19:08;17.90;99.90
41904;DHT22;27586;51.124;4.182;2023-05-14T10:21:36;17.90;99.90
41904;DHT22;27586;51.124;4.182;2023-05-14T10:24:03;17.80;99.90
41904;DHT22;27586;51.124;4.182;2023-05-14T10:26:30;18.00;99.90
41904;DHT22;27586;51.124;4.182;2023-05-14T10:28:57;18.10;99.90
41904;DHT22;27586;51.124;4.182;2023-05-14T10:31:52;18.00;99.90
41904;DHT22;27586;51.124;4.182;2023-05-14T10:34:38;17.90;99.90
41904;DHT22;27586;51.124;4.182;2023-05-14T10:37:22;17.90;99.90
41904;DHT22;27586;51.124;4.182;2023-05-14T10:39:53;18.00;99.90
41904;DHT22;27586;51.124;4.182;2023-05-14T10:42:27;18.00;99.90
41904;DHT22;27586;51.124;4.182;2023-05-14T10:47:21;18.30;99.90
41904;DHT22;27586;51.124;4.182;2023-05-14T10:49:47;18.30;99.90
41904;DHT22;27586;51.124;4.182;2023-05-14T10:52:16;18.30;99.90
41904;DHT22;27586;51.124;4.182;2023-05-14T10:54:48;18.50;99.90
41904;DHT22;27586;51.124;4.182;2023-05-14T10:57:17;18.40;99.90
41904;DHT22;27586;51.124;4.182;2023-05-14T10:59:43;18.50;99.90
41904;DHT22;27586;51.124;4.182;2023-05-14T11:02:20;18.40;99.90
41904;DHT22;27586;51.124;4.182;2023-05-14T11:04:57;18.60;99.90
41904;DHT22;27586;51.124;4.182;2023-05-14T11:07:35;18.60;99.90
41904;DHT22;27586;51.124;4.182;2023-05-14T11:10:16;18.40;99.90
41904;DHT22;27586;51.124;4.182;2023-05-14T11:12:50;18.50;99.90
41904;DHT22;27586;51.124;4.182;2023-05-14T11:15:21;18.40;99.90
41904;DHT22;27586;51.124;4.182;2023-05-14T11:17:48;18.60;99.90
41904;DHT22;27586;51.124;4.182;2023-05-14T11:20:15;18.80;99.90
41904;DHT22;27586;51.124;4.182;2023-05-14T11:22:42;18.90;99.90
41904;DHT22;27586;51.124;4.182;2023-05-14T11:25:09;19.10;99.90
41904;DHT22;27586;51.124;4.182;2023-05-14T11:27:36;19.00;99.90
41904;DHT22;27586;51.124;4.182;2023-05-14T11:30:03;19.10;99.90
41904;DHT22;27586;51.124;4.182;2023-05-14T11:32:31;19.10;99.90
41904;DHT22;27586;51.124;4.182;2023-05-14T11:34:57;19.20;99.90
41904;DHT22;27586;51.124;4.182;2023-05-14T11:37:23;19.40;99.90
41904;DHT22;27586;51.124;4.182;2023-05-14T11:39:53;19.40;99.90
41904;DHT22;27586;51.124;4.182;2023-05-14T11:42:20;19.40;99.90
41904;DHT22;27586;51.124;4.182;2023-05-14T11:44:48;19.40;99.90
41904;DHT22;27586;51.124;4.182;2023-05-14T11:47:15;19.70;99.90
41904;DHT22;27586;51.124;4.182;2023-05-14T11:49:41;19.70;99.90
41904;DHT22;27586;51.124;4.182;2023-05-14T11:52:10;19.60;99.90
41904;DHT22;27586;51.124;4.182;2023-05-14T11:54:38;19.40;99.90
41904;DHT22;27586;51.124;4.182;2023-05-14T11:57:12;19.40;99.90
41904;DHT22;27586;51.124;4.182;2023-05-14T11:59:39;19.20;99.90
41904;DHT22;27586;51.124;4.182;2023-05-14T12:02:07;19.10;99.90
41904;DHT22;27586;51.124;4.182;2023-05-14T12:04:34;19.20;99.90
41904;DHT22;27586;51.124;4.182;2023-05-14T12:07:09;19.40;99.90
41904;DHT22;27586;51.124;4.182;2023-05-14T12:09:37;19.60;99.90
41904;DHT22;27586;51.124;4.182;2023-05-14T12:12:11;20.00;99.90
41904;DHT22;27586;51.124;4.182;2023-05-14T12:14:38;20.10;99.90
41904;DHT22;27586;51.124;4.182;2023-05-14T12:17:17;20.10;99.90
41904;DHT22;27586;51.124;4.182;2023-05-14T12:19:45;20.10;99.90
41904;DHT22;27586;51.124;4.182;2023-05-14T12:22:15;20.00;99.90
41904;DHT22;27586;51.124;4.182;2023-05-14T12:24:42;19.70;99.90
41904;DHT22;27586;51.124;4.182;2023-05-14T12:27:09;19.60;99.90
41904;DHT22;27586;51.124;4.182;2023-05-14T12:29:38;19.70;99.90
41904;DHT22;27586;51.124;4.182;2023-05-14T12:32:08;19.70;99.90
41904;DHT22;27586;51.124;4.182;2023-05-14T12:34:34;19.80;99.90
41904;DHT22;27586;51.124;4.182;2023-05-14T12:37:00;19.90;99.90
41904;DHT22;27586;51.124;4.182;2023-05-14T12:39:26;20.00;99.90
41904;DHT22;27586;51.124;4.182;2023-05-14T12:41:52;20.10;99.90
41904;DHT22;27586;51.124;4.182;2023-05-14T12:44:18;20.10;99.90
41904;DHT22;27586;51.124;4.182;2023-05-14T12:46:43;20.10;99.90
41904;DHT22;27586;51.124;4.182;2023-05-14T12:49:09;19.90;99.90
41904;DHT22;27586;51.124;4.182;2023-05-14T12:51:35;19.90;99.90
41904;DHT22;27586;51.124;4.182;2023-05-14T12:54:01;19.90;99.90
41904;DHT22;27586;51.124;4.182;2023-05-14T12:56:26;19.80;99.90
41904;DHT22;27586;51.124;4.182;2023-05-14T12:58:55;19.80;99.90
41904;DHT22;27586;51.124;4.182;2023-05-14T13:01:21;19.90;99.90
41904;DHT22;27586;51.124;4.182;2023-05-14T13:03:47;20.00;99.90
41904;DHT22;27586;51.124;4.182;2023-05-14T13:06:13;20.20;99.90
41904;DHT22;27586;51.124;4.182;2023-05-14T13:08:38;20.20;99.90
41904;DHT22;27586;51.124;4.182;2023-05-14T13:11:04;20.30;99.90
41904;DHT22;27586;51.124;4.182;2023-05-14T13:13:30;20.30;99.90
41904;DHT22;27586;51.124;4.182;2023-05-14T13:15:56;20.40;99.90
41904;DHT22;27586;51.124;4.182;2023-05-14T13:18:21;20.40;99.90
41904;DHT22;27586;51.124;4.182;2023-05-14T13:20:47;20.30;99.90
41904;DHT22;27586;51.124;4.182;2023-05-14T13:23:13;20.60;99.90
41904;DHT22;27586;51.124;4.182;2023-05-14T13:25:39;20.70;99.90
41904;DHT22;27586;51.124;4.182;2023-05-14T13:28:05;20.60;99.90
41904;DHT22;27586;51.124;4.182;2023-05-14T13:30:30;20.60;99.90
41904;DHT22;27586;51.124;4.182;2023-05-14T13:32:57;20.50;99.90
41904;DHT22;27586;51.124;4.182;2023-05-14T13:35:27;20.50;99.90
41904;DHT22;27586;51.124;4.182;2023-05-14T13:37:52;20.70;99.90
41904;DHT22;27586;51.124;4.182;2023-05-14T13:40:21;20.90;99.90
41904;DHT22;27586;51.124;4.182;2023-05-14T13:42:46;20.60;99.90
41904;DHT22;27586;51.124;4.182;2023-05-14T13:45:12;20.50;99.90
41904;DHT22;27586;51.124;4.182;2023-05-14T13:47:38;20.80;99.90
41904;DHT22;27586;51.124;4.182;2023-05-14T13:50:06;20.80;99.90
41904;DHT22;27586;51.124;4.182;2023-05-14T13:52:32;20.60;99.90
41904;DHT22;27586;51.124;4.182;2023-05-14T13:54:58;20.80;99.90
41904;DHT22;27586;51.124;4.182;2023-05-14T13:57:24;20.70;99.90
41904;DHT22;27586;51.124;4.182;2023-05-14T13:59:50;20.40;99.90
41904;DHT22;27586;51.124;4.182;2023-05-14T14:02:16;20.40;99.90
41904;DHT22;27586;51.124;4.182;2023-05-14T14:04:42;20.20;99.90
41904;DHT22;27586;51.124;4.182;2023-05-14T14:07:07;20.30;99.90
41904;DHT22;27586;51.124;4.182;2023-05-14T14:09:33;20.30;99.90
41904;DHT22;27586;51.124;4.182;2023-05-14T14:12:04;20.10;99.90
41904;DHT22;27586;51.124;4.182;2023-05-14T14:14:30;20.00;99.90
41904;DHT22;27586;51.124;4.182;2023-05-14T14:16:55;19.90;99.90
41904;DHT22;27586;51.124;4.182;2023-05-14T14:19:21;19.90;99.90
41904;DHT22;27586;51.124;4.182;2023-05-14T14:21:47;19.70;99.90
41904;DHT22;27586;51.124;4.182;2023-05-14T14:24:12;19.70;99.90
41904;DHT22;27586;51.124;4.182;2023-05-14T14:26:38;19.70;99.90
41904;DHT22;27586;51.124;4.182;2023-05-14T14:29:04;19.70;99.90
41904;DHT22;27586;51.124;4.182;2023-05-14T14:31:29;19.50;99.90
41904;DHT22;27586;51.124;4.182;2023-05-14T14:33:55;19.30;99.90
41904;DHT22;27586;51.124;4.182;2023-05-14T14:36:20;19.20;99.90
41904;DHT22;27586;51.124;4.182;2023-05-14T14:38:46;19.20;99.90
41904;DHT22;27586;51.124;4.182;2023-05-14T14:41:12;19.10;99.90
41904;DHT22;27586;51.124;4.182;2023-05-14T14:43:38;19.00;99.90
41904;DHT22;27586;51.124;4.182;2023-05-14T14:46:04;18.70;99.90
41904;DHT22;27586;51.124;4.182;2023-05-14T14:48:32;18.60;99.90
41904;DHT22;27586;51.124;4.182;2023-05-14T14:50:59;18.40;99.90
41904;DHT22;27586;51.124;4.182;2023-05-14T14:53:28;18.30;99.90
41904;DHT22;27586;51.124;4.182;2023-05-14T14:55:53;18.30;99.90
41904;DHT22;27586;51.124;4.182;2023-05-14T14:58:20;18.20;99.90
41904;DHT22;27586;51.124;4.182;2023-05-14T15:00:46;18.20;99.90
41904;DHT22;27586;51.124;4.182;2023-05-14T15:03:12;18.00;99.90
41904;DHT22;27586;51.124;4.182;2023-05-14T15:05:39;18.00;99.90
41904;DHT22;27586;51.124;4.182;2023-05-14T15:08:05;17.90;99.90
41904;DHT22;27586;51.124;4.182;2023-05-14T15:10:31;18.10;99.90
41904;DHT22;27586;51.124;4.182;2023-05-14T15:12:57;18.20;99.90
41904;DHT22;27586;51.124;4.182;2023-05-14T15:15:24;18.00;99.90
41904;DHT22;27586;51.124;4.182;2023-05-14T15:17:50;17.80;99.90
41904;DHT22;27586;51.124;4.182;2023-05-14T15:20:16;17.80;99.90
41904;DHT22;27586;51.124;4.182;2023-05-14T15:22:42;17.80;99.90
41904;DHT22;27586;51.124;4.182;2023-05-14T15:25:08;17.60;99.90
41904;DHT22;27586;51.124;4.182;2023-05-14T15:27:34;17.60;99.90
41904;DHT22;27586;51.124;4.182;2023-05-14T15:30:00;17.70;99.90
41904;DHT22;27586;51.124;4.182;2023-05-14T15:32:26;17.60;99.90
41904;DHT22;27586;51.124;4.182;2023-05-14T15:34:53;17.50;99.90
41904;DHT22;27586;51.124;4.182;2023-05-14T15:37:19;17.50;99.90
41904;DHT22;27586;51.124;4.182;2023-05-14T15:39:45;17.50;99.90